Ride Results

Matar Stables Bullio Qualifier Tumut (10-10-2020)
Ride distance: 85.0 km

Outcomes - Matar Stables Bullio Qualifier Tumut (10-10-2020)
Division No. of Entries Retired / DNE Completed Withdrawn Ineligible V/O Percentage Completed
HW 9 - 7 1 - 1 77.78%
MW 16 - 12 - - 4 75.00%
LW 18 - 11 - - 7 61.11%
JN 8 - 5 - - 3 62.50%
Totals 51 - 35 1 - 15 68.63%
Results - Matar Stables Bullio Qualifier Tumut (10-10-2020)
No. Rider Horse Place Time Leg Speeds Total
Km/Hr
H/R bpm
Heavyweight
253 Con Bouzianis Conderosa Zaheera 1 6:16:00 13.7, 13.3 13.56 38, 43, 51 (Avg:47)
294 Marty Moran Coco Chanel 2 6:25:00 13.9, 12.5 13.25 44, 47, 57 (Avg:52)
283 Jolene Cole Baribo 3 7:19:00 12.2, 10.9 11.62 32, 39, 48 (Avg:43)
267 Brian Swan Arabesque Abdul 4 7:22:00 13.4, 9.9 11.54 40, 52, 53 (Avg:52)
254 Alan Mackinder Jezabelle Sweet Dreams 5 7:23:00 13.3, 9.9 11.51 34, 49, 51 (Avg:50)
266 Ian Dreghorn Mountain Breeze Jacobite 6 8:59:00 10.2, 8.7 9.46 33, 37, 42 (Avg:39)
286 Gavin Peacock Chop Chop 6 8:59:00 13.3, 7.1 9.46 32, 44, 57 (Avg:50)
268 James Sheahan Twynham El Zephyr Heart Rate L2 0:00:00 13.2, 10.7 - 34, 45, 66 (Avg:55)
275 Allan Caslick A'Landell Jester W/D after vetting L1 0:00:00 - - 32, 46 (Avg:46)
Middleweight
250 Ellen Vine Henley Farm Janazah 1 5:40:00 15.7, 14.2 15.00 34, 36, 38 (Avg:37)
273 Sharyn Coulston Castlebar Roulette 2 5:44:00 15.4, 14.2 14.83 32, 40, 55 (Avg:47)
270 Kristie Taprell Castlebar Belair 3 6:10:00 14.8, 12.7 13.78 36, 50, 48 (Avg:49)
256 Anita Ashby Lentara Park Heather 4 6:21:00 14.9, 11.9 13.39 36, 47, 60 (Avg:53)
262 Ian Curtis Blake's Heaven Summer Wind 4 6:21:00 13.8, 12.9 13.39 37, 44, 59 (Avg:51)
293 Bev Turner Dane 6 6:25:00 13.9, 12.5 13.25 36, 48, 54 (Avg:51)
274 Shannon Cossor Castlebar Bazaar 7 6:47:00 13.4, 11.6 12.53 30, 46, 51 (Avg:48)
272 Tahlia Franke Castlebar Telltale 7 6:47:00 13.4, 11.6 12.53 44, 46, 60 (Avg:53)
280 Clare Feary Equilo 9 7:01:00 13.6, 10.7 12.11 39, 43, 50 (Avg:46)
279 Darien Feary Valinor Park Madrass 9 7:01:00 13.6, 10.7 12.11 36, 42, 13 (Avg:27)
249 Jennifer Rogers Shazam 11 7:09:00 13.7, 10.3 11.89 40, 38, 55 (Avg:46)
292 Kayte Barnard Sansa 12 8:19:00 12.5, 8.4 10.22 42, 51, 53 (Avg:52)
288 Jesse Buchan Mountain Ash Tabasco Heart Rate L2 0:00:00 11.3, 8.9 - 33, 44, 63 (Avg:53)
246 Leanne Hickson Regal Buddie Heart Rate L2 0:00:00 13.7, 9.7 - 38, 52, 65 (Avg:58)
252 Tom Bouzianis Conderosa Fiona Heart Rate L1 0:00:00 13.8 - 38, 61 (Avg:61)
248 John Symons Ruby Rose Heart Rate L1 0:00:00 12.7 - 33, 56 (Avg:56)
Lightweight
251 Eliza Webb Castlebar What's The Goss 1 5:40:00 15.7, 14.2 15.00 40, 47, 58 (Avg:52)
263 Simone Murphy Blake's Heaven Adventuress 2 6:21:00 14.4, 12.3 13.39 48, 49, 58 (Avg:53)
259 Tracy-Lee Cossor Future Dream Savannah 3 6:45:00 13.7, 11.4 12.59 36, 45, 50 (Avg:47)
269 Essy Mountford Tonki Dee Boo Allure 4 7:07:00 13.2, 10.7 11.94 46, 54, 60 (Avg:57)
285 Elizabeth Moir Windradyne Flame 5 7:19:00 12.2, 10.9 11.62 32, 40, 45 (Avg:42)
258 Julie Hooper A'Landell Enigma 6 8:02:00 12.4, 9.0 10.58 38, 39, 60 (Avg:49)
276 Jodi Dewick Wickwood Dark Rose 7 8:17:00 11.8, 8.9 10.26 40, 45, 49 (Avg:47)
277 Sorsha Stuart-Rokvic Charadia Zignzag 7 8:17:00 11.8, 8.9 10.26 38, 38, 60 (Avg:49)
291 Mary Hollingsworth Alexandria 9 8:19:00 12.5, 8.4 10.22 37, 35, 36 (Avg:35)
287 Talea Hasko-Stewart Blake's Heaven Bombora 10 8:26:00 11.3, 8.9 10.08 38, 41, 58 (Avg:49)
265 Celia Hodgson Blake's Heaven Hiraani 10 8:26:00 11.3, 8.9 10.08 34, 42, 49 (Avg:45)
243 Avril Cummins C-Biskit Heart Rate L2 0:00:00 10.4, 9.0 - 40, 46, 65 (Avg:55)
264 Fia Hasko-Stewart Blake's Heaven Venus Heart Rate L2 0:00:00 14.4, 12.3 - 42, 42, 66 (Avg:54)
245 Belinda Hollingworth Ramlea Flash Heart Rate L2 0:00:00 10.2, 8.9 - 38, 53, 64 (Avg:58)
244 Nichola Mepham Orsum-Ma Heart Rate L2 0:00:00 13.8, 11.3 - 48, 50, 68 (Avg:59)
261 Kali Sloane Blake's Heaven Carousel Heart Rate L2 0:00:00 14.9, 11.9 - 42, 47, 65 (Avg:56)
240 Vic Alran River Oak Nullabor Lame L1 0:00:00 13.2 - 38, 49 (Avg:49)
281 Roz Edmunds Minton East Willows Gift Lame L1 0:00:00 12.6 - 34, 38 (Avg:38)
Junior
255 Tegan Ashby Marat MA 1 6:21:00 14.9, 11.9 13.39 42, 50, 58 (Avg:54)
260 Hannah Cossor Future Dream Amelia 2 6:45:00 13.7, 11.4 12.59 30, 46, 51 (Avg:48)
257 Madison Hooper Night Fire 3 8:02:00 12.4, 9.0 10.58 29, 44, 51 (Avg:47)
242 Kaitlyn Mercieca Coolinda Park Sheeza Doll 4 8:17:00 11.8, 8.9 10.26 32, 43, 43 (Avg:43)
241 Kaja Robinson Flemingo Queen 5 8:59:00 13.2, 7.1 9.46 33, 45, 51 (Avg:48)
282 Jayme Cooper Jupiter Sharara Heart Rate L2 0:00:00 12.6, 11.1 - 40, 49, 76 (Avg:62)
284 Emma Cole Yallaroo Amira Lame L1 0:00:00 12.2 - 44, 44 (Avg:44)
247 Summer Neal Lilonda Sharjah Heart Rate L1 0:00:00 12.7 - 33, 66 (Avg:66)